createdAt,value
2023-02-06T00:00:44.027Z,110.46
2023-02-06T00:03:50.912Z,105.56
2023-02-06T00:06:59.406Z,102.79
2023-02-06T00:10:06.297Z,107.09
2023-02-06T00:13:12.409Z,104.84
2023-02-06T00:16:21.373Z,108.81
2023-02-06T00:19:27.385Z,112.90
2023-02-06T00:22:37.182Z,112.36
2023-02-06T00:25:43.149Z,108.96
2023-02-06T00:28:50.609Z,105.98
2023-02-06T00:31:56.892Z,109.95
2023-02-06T00:35:11.125Z,108.79
2023-02-06T00:38:22.345Z,102.64
2023-02-06T00:41:29.126Z,106.88
2023-02-06T00:44:35.054Z,105.55
2023-02-06T00:47:41.855Z,105.61
2023-02-06T00:50:50.494Z,118.85
2023-02-06T00:53:59.978Z,125.28
2023-02-06T00:57:05.895Z,116.12
2023-02-06T01:00:16.041Z,104.74
2023-02-06T01:03:21.912Z,108.57
2023-02-06T01:06:28.769Z,102.75
2023-02-06T01:09:37.401Z,96.85
2023-02-06T01:12:44.298Z,98.99
2023-02-06T01:15:52.163Z,96.56
2023-02-06T01:18:59.367Z,97.59
2023-02-06T01:22:05.351Z,102.05
2023-02-06T01:25:14.905Z,101.42
2023-02-06T01:28:21.165Z,95.54
2023-02-06T01:31:32.025Z,95.32
2023-02-06T01:34:37.919Z,99.28
2023-02-06T01:37:45.323Z,98.31
2023-02-06T01:41:00.371Z,103.28
2023-02-06T01:44:22.702Z,112.28
2023-02-06T01:47:30.396Z,114.10
2023-02-06T01:50:40.367Z,113.43
2023-02-06T01:53:56.792Z,111.10
2023-02-06T01:57:14.545Z,109.15
2023-02-06T02:00:27.640Z,94.48
2023-02-06T02:03:39.997Z,99.27
2023-02-06T02:06:47.461Z,101.33
2023-02-06T02:09:58.749Z,107.33
2023-02-06T02:13:17.603Z,116.77
2023-02-06T02:16:39.770Z,116.39
2023-02-06T02:20:48.869Z,114.06
2023-02-06T02:24:07.943Z,123.93
2023-02-06T02:27:47.772Z,101.46
2023-02-06T02:31:41.318Z,113.35
2023-02-06T02:35:25.765Z,110.57
2023-02-06T02:38:55.057Z,112.62
2023-02-06T02:42:14.743Z,112.55
2023-02-06T02:45:33.329Z,109.45
2023-02-06T02:48:47.246Z,98.30
2023-02-06T02:51:58.666Z,101.66
2023-02-06T02:55:23.603Z,103.39
2023-02-06T02:58:44.796Z,109.96
2023-02-06T03:02:02.637Z,120.77
2023-02-06T03:05:14.754Z,117.58
2023-02-06T03:08:47.145Z,113.49
2023-02-06T03:12:14.670Z,113.07
2023-02-06T03:15:34.942Z,111.39
2023-02-06T03:18:50.078Z,98.74
2023-02-06T03:21:57.001Z,104.15
2023-02-06T03:25:13.316Z,103.24
2023-02-06T03:28:31.164Z,112.90
2023-02-06T03:31:45.882Z,109.88
2023-02-06T03:35:06.465Z,113.46
2023-02-06T03:38:13.860Z,108.20
2023-02-06T03:41:34.969Z,106.87
2023-02-06T03:44:57.520Z,103.60
2023-02-06T03:48:18.294Z,101.46
2023-02-06T03:51:31.919Z,99.45
2023-02-06T03:54:46.100Z,100.71
2023-02-06T03:58:09.031Z,100.40
2023-02-06T04:01:17.540Z,101.01
2023-02-06T04:04:29.372Z,99.76
2023-02-06T04:07:43.063Z,96.57
2023-02-06T04:10:49.546Z,97.46
2023-02-06T04:13:58.920Z,98.04
2023-02-06T04:17:09.799Z,94.78
2023-02-06T04:20:17.106Z,94.55
2023-02-06T04:23:24.291Z,96.31
2023-02-06T04:26:31.201Z,91.93
2023-02-06T04:29:39.724Z,91.23
2023-02-06T04:32:46.786Z,91.35
2023-02-06T04:35:52.726Z,92.11
2023-02-06T04:38:59.549Z,90.55
2023-02-06T04:42:05.836Z,90.19
2023-02-06T04:45:15.745Z,91.69
2023-02-06T04:48:24.714Z,92.25
2023-02-06T04:51:31.491Z,100.19
2023-02-06T04:54:37.459Z,101.52
2023-02-06T04:57:44.539Z,97.93
2023-02-06T05:00:58.452Z,117.93
2023-02-06T05:04:05.460Z,114.79
2023-02-06T05:07:11.379Z,120.18
2023-02-06T05:10:18.691Z,116.71
2023-02-06T05:13:30.480Z,113.59
2023-02-06T05:16:39.901Z,115.35
2023-02-06T05:19:46.119Z,120.52
2023-02-06T05:22:52.902Z,140.01
2023-02-06T05:25:59.806Z,140.60
2023-02-06T05:29:27.770Z,133.42
2023-02-06T05:32:36.266Z,137.00
2023-02-06T05:35:43.904Z,139.00
2023-02-06T05:38:54.122Z,143.48
2023-02-06T05:42:00.960Z,170.47
2023-02-06T05:45:08.586Z,179.82
2023-02-06T05:48:17.933Z,177.86
2023-02-06T05:51:23.778Z,180.59
2023-02-06T05:54:30.615Z,220.09
2023-02-06T05:57:36.693Z,286.04
2023-02-06T06:00:51.493Z,300.23
2023-02-06T06:04:09.723Z,242.51
2023-02-06T06:07:16.691Z,215.44
2023-02-06T06:10:22.940Z,197.00
2023-02-06T06:13:30.611Z,165.79
2023-02-06T06:16:41.788Z,153.27
2023-02-06T06:19:51.225Z,155.46
2023-02-06T06:22:57.338Z,167.52
2023-02-06T06:26:04.139Z,172.96
2023-02-06T06:29:15.179Z,159.84
2023-02-06T06:32:22.488Z,149.66
2023-02-06T06:35:31.180Z,140.57
2023-02-06T06:38:38.707Z,141.40
2023-02-06T06:41:44.950Z,139.45
2023-02-06T06:44:51.799Z,124.91
2023-02-06T06:47:57.914Z,111.11
2023-02-06T06:51:07.841Z,100.22
2023-02-06T06:54:14.702Z,95.47
2023-02-06T06:57:23.828Z,102.99
2023-02-06T07:00:41.422Z,106.91
2023-02-06T07:03:49.265Z,93.69
2023-02-06T07:06:57.877Z,86.32
2023-02-06T07:10:04.867Z,85.13
2023-02-06T07:13:11.027Z,80.47
2023-02-06T07:16:17.910Z,71.44
2023-02-06T07:19:24.308Z,65.61
2023-02-06T07:22:51.528Z,64.26
2023-02-06T07:26:08.902Z,58.06
2023-02-06T07:29:27.213Z,59.00
2023-02-06T07:32:33.999Z,58.23
2023-02-06T07:35:39.853Z,58.06
2023-02-06T07:38:51.249Z,59.40
2023-02-06T07:41:57.290Z,55.93
2023-02-06T07:45:17.152Z,54.33
2023-02-06T07:48:23.215Z,55.45
2023-02-06T07:51:33.042Z,58.21
2023-02-06T07:54:41.643Z,57.25
2023-02-06T07:57:48.490Z,54.68
2023-02-06T08:00:54.963Z,49.47
2023-02-06T08:04:08.897Z,49.13
2023-02-06T08:07:16.713Z,48.64
2023-02-06T08:10:32.929Z,50.21
2023-02-06T08:13:43.070Z,55.54
2023-02-06T08:16:49.884Z,56.10
2023-02-06T08:20:06.837Z,57.43
2023-02-06T08:23:13.607Z,55.75
2023-02-06T08:26:22.380Z,49.44
2023-02-06T08:29:30.041Z,47.19
2023-02-06T08:32:39.481Z,42.93
2023-02-06T08:35:52.378Z,43.34
2023-02-06T08:39:09.873Z,46.44
2023-02-06T08:42:19.273Z,45.67
2023-02-06T08:45:30.426Z,42.83
2023-02-06T08:48:37.248Z,40.59
2023-02-06T08:51:44.372Z,40.74
2023-02-06T08:54:54.135Z,33.82
2023-02-06T08:58:08.901Z,32.63
2023-02-06T09:01:26.731Z,29.46
2023-02-06T09:04:35.759Z,30.52
2023-02-06T09:07:42.514Z,29.97
2023-02-06T09:10:48.420Z,27.94
2023-02-06T09:14:01.303Z,25.32
2023-02-06T09:17:07.478Z,19.47
2023-02-06T09:20:14.585Z,19.72
2023-02-06T09:23:20.826Z,18.71
2023-02-06T09:26:30.918Z,17.98
2023-02-06T09:29:39.670Z,18.65
2023-02-06T09:32:46.707Z,16.72
2023-02-06T09:35:52.746Z,17.31
2023-02-06T09:39:00.796Z,18.14
2023-02-06T09:42:15.072Z,18.03
2023-02-06T09:45:30.395Z,17.18
2023-02-06T09:48:42.325Z,17.22
2023-02-06T09:52:29.240Z,14.67
2023-02-06T09:55:47.511Z,14.46
2023-02-06T09:59:07.541Z,14.49
2023-02-06T10:02:47.932Z,13.30
2023-02-06T10:06:14.381Z,13.56
2023-02-06T10:09:31.612Z,14.02
2023-02-06T10:12:47.995Z,14.90
2023-02-06T10:16:02.286Z,13.79
2023-02-06T10:19:24.472Z,14.73
2023-02-06T10:22:42.071Z,14.31
2023-02-06T10:26:17.590Z,14.21
2023-02-06T10:29:31.876Z,15.39
2023-02-06T10:32:54.198Z,16.15
2023-02-06T10:36:25.617Z,16.57
2023-02-06T10:40:04.361Z,17.49
2023-02-06T10:43:29.354Z,18.54
2023-02-06T10:46:48.433Z,21.92
2023-02-06T10:50:05.050Z,24.29
2023-02-06T10:53:25.112Z,21.98
2023-02-06T10:56:38.804Z,22.16
2023-02-06T10:59:57.740Z,21.98
2023-02-06T11:03:11.015Z,20.68
2023-02-06T11:06:26.008Z,20.71
2023-02-06T11:09:40.245Z,20.03
2023-02-06T11:13:03.944Z,20.24
2023-02-06T11:16:23.660Z,20.02
2023-02-06T11:19:40.603Z,19.62
2023-02-06T11:22:53.012Z,18.75
2023-02-06T11:26:17.493Z,18.06
2023-02-06T11:29:30.000Z,17.05
2023-02-06T11:32:52.901Z,16.90
2023-02-06T11:36:33.021Z,18.70
2023-02-06T11:39:42.608Z,20.59
2023-02-06T11:42:55.664Z,19.69
2023-02-06T11:46:21.615Z,21.47
2023-02-06T11:49:31.945Z,22.07
2023-02-06T11:52:38.983Z,21.99
2023-02-06T11:55:45.623Z,23.10
2023-02-06T11:59:14.890Z,23.07
2023-02-06T12:02:36.674Z,23.97
2023-02-06T12:05:47.357Z,25.34
2023-02-06T12:08:56.620Z,25.65
2023-02-06T12:12:13.331Z,23.91
2023-02-06T12:15:45.369Z,22.98
2023-02-06T12:19:00.683Z,26.32
2023-02-06T12:22:21.613Z,23.03
2023-02-06T12:25:36.107Z,21.76
2023-02-06T12:28:57.827Z,21.64
2023-02-06T12:32:18.379Z,20.76
2023-02-06T12:35:45.425Z,23.60
2023-02-06T12:39:01.304Z,23.41
2023-02-06T12:42:37.218Z,22.19
2023-02-06T12:45:55.211Z,18.71
2023-02-06T12:49:18.831Z,18.11
2023-02-06T12:52:34.579Z,19.69
2023-02-06T12:56:00.631Z,18.81
2023-02-06T13:00:10.960Z,19.72
2023-02-06T13:03:30.446Z,20.08
2023-02-06T13:07:02.727Z,21.91
2023-02-06T13:10:30.057Z,18.49
2023-02-06T13:13:43.749Z,18.25
2023-02-06T13:16:58.435Z,18.04
2023-02-06T13:20:17.860Z,18.43
2023-02-06T13:23:29.568Z,17.89
2023-02-06T13:27:16.728Z,18.44
2023-02-06T13:30:51.070Z,17.92
2023-02-06T13:34:04.443Z,17.44
2023-02-06T13:37:30.925Z,18.16
2023-02-06T13:40:40.825Z,18.01
2023-02-06T13:43:57.111Z,17.45
2023-02-06T13:47:34.885Z,19.90
2023-02-06T13:51:17.028Z,21.76
2023-02-06T13:55:06.218Z,19.98
2023-02-06T13:58:48.808Z,23.05
2023-02-06T14:01:57.611Z,22.48
2023-02-06T14:05:07.991Z,19.75
2023-02-06T14:08:30.588Z,22.65
2023-02-06T14:12:17.997Z,21.55
2023-02-06T14:15:45.143Z,22.80
2023-02-06T14:19:09.075Z,21.12
2023-02-06T14:22:38.189Z,18.94
2023-02-06T14:26:16.000Z,19.84
2023-02-06T14:29:49.069Z,21.94
2023-02-06T14:33:19.625Z,25.90
2023-02-06T14:37:04.001Z,25.41
2023-02-06T14:40:22.674Z,22.76
2023-02-06T14:43:38.278Z,19.00
2023-02-06T14:46:45.297Z,18.31
2023-02-06T14:49:58.331Z,18.84
2023-02-06T14:53:12.632Z,36.49
2023-02-06T14:56:27.165Z,39.87
2023-02-06T14:59:34.129Z,34.81
2023-02-06T15:02:41.328Z,31.73
2023-02-06T15:05:50.448Z,28.47
2023-02-06T15:08:57.761Z,24.49
2023-02-06T15:12:21.536Z,27.23
2023-02-06T15:15:32.357Z,30.55
2023-02-06T15:18:40.449Z,28.04
2023-02-06T15:21:50.927Z,29.70
2023-02-06T15:25:22.112Z,26.00
2023-02-06T15:28:33.914Z,22.66
2023-02-06T15:31:39.988Z,20.94
2023-02-06T15:34:49.916Z,21.49
2023-02-06T15:37:59.731Z,22.68
2023-02-06T15:41:11.632Z,21.87
2023-02-06T15:44:31.276Z,22.20
2023-02-06T15:47:39.280Z,27.61
2023-02-06T15:50:57.359Z,29.27
2023-02-06T15:54:23.851Z,25.77
2023-02-06T15:57:36.657Z,27.30
2023-02-06T16:00:45.625Z,29.71
2023-02-06T16:04:01.476Z,35.30
2023-02-06T16:07:19.367Z,39.29
2023-02-06T16:10:32.120Z,45.81
2023-02-06T16:13:40.216Z,44.66
2023-02-06T16:17:01.363Z,56.28
2023-02-06T16:20:33.407Z,59.74
2023-02-06T16:23:49.850Z,45.91
2023-02-06T16:26:59.499Z,38.47
2023-02-06T16:30:06.356Z,40.14
2023-02-06T16:33:28.961Z,34.66
2023-02-06T16:36:36.411Z,33.78
2023-02-06T16:39:45.541Z,37.33
2023-02-06T16:42:54.319Z,36.62
2023-02-06T16:46:02.872Z,33.80
2023-02-06T16:49:15.148Z,33.01
2023-02-06T16:52:28.473Z,34.60
2023-02-06T16:55:34.699Z,39.18
2023-02-06T16:58:46.729Z,42.04
2023-02-06T17:01:52.840Z,42.17
2023-02-06T17:05:00.008Z,44.25
2023-02-06T17:08:16.579Z,52.11
2023-02-06T17:11:23.437Z,53.73
2023-02-06T17:14:34.896Z,55.87
2023-02-06T17:17:43.032Z,47.36
2023-02-06T17:20:53.731Z,48.07
2023-02-06T17:24:00.657Z,46.38
2023-02-06T17:27:07.467Z,48.28
2023-02-06T17:30:22.837Z,50.51
2023-02-06T17:33:28.962Z,63.04
2023-02-06T17:36:39.804Z,60.45
2023-02-06T17:39:45.866Z,64.97
2023-02-06T17:42:53.787Z,63.72
2023-02-06T17:46:02.528Z,59.52
2023-02-06T17:49:09.558Z,66.90
2023-02-06T17:52:16.488Z,76.67
2023-02-06T17:55:24.020Z,92.14
2023-02-06T17:58:33.464Z,103.12
2023-02-06T18:01:43.373Z,93.01
2023-02-06T18:04:53.613Z,86.21
2023-02-06T18:08:01.192Z,82.10
2023-02-06T18:11:12.304Z,77.25
2023-02-06T18:14:21.103Z,75.31
2023-02-06T18:17:31.129Z,80.45
2023-02-06T18:20:39.449Z,75.53
2023-02-06T18:23:46.591Z,69.74
2023-02-06T18:26:53.487Z,206.82
2023-02-06T18:29:59.870Z,319.80
2023-02-06T18:33:09.649Z,372.72
2023-02-06T18:36:15.945Z,368.00
2023-02-06T18:39:23.400Z,282.41
2023-02-06T18:42:42.872Z,276.91
2023-02-06T18:46:10.203Z,347.96
2023-02-06T18:49:33.541Z,318.23
2023-02-06T18:52:54.408Z,282.88
2023-02-06T18:56:18.754Z,244.86
2023-02-06T18:59:42.668Z,218.58
2023-02-06T19:03:03.632Z,224.15
2023-02-06T19:06:32.148Z,215.30
2023-02-06T19:10:00.888Z,209.08
2023-02-06T19:13:21.513Z,479.89
2023-02-06T19:16:47.555Z,409.78
2023-02-06T19:20:11.081Z,384.47
2023-02-06T19:23:35.145Z,477.52
2023-02-06T19:26:56.734Z,389.62
2023-02-06T19:30:17.977Z,293.34
2023-02-06T19:33:43.837Z,240.19
2023-02-06T19:37:04.708Z,286.24
2023-02-06T19:40:28.119Z,401.63
2023-02-06T19:43:49.554Z,483.25
2023-02-06T19:47:10.366Z,438.33
2023-02-06T19:50:31.170Z,403.96
2023-02-06T19:53:53.844Z,375.78
2023-02-06T19:57:19.591Z,346.64
2023-02-06T20:00:40.610Z,372.19
2023-02-06T20:04:04.081Z,367.42
2023-02-06T20:07:24.878Z,331.70
2023-02-06T20:10:45.769Z,349.58
2023-02-06T20:14:09.617Z,322.68
2023-02-06T20:17:33.179Z,306.14
2023-02-06T20:20:53.956Z,285.18
2023-02-06T20:24:25.477Z,284.46
2023-02-06T20:27:46.298Z,282.78
2023-02-06T20:31:14.731Z,299.11
2023-02-06T20:34:36.154Z,304.94
2023-02-06T20:38:08.884Z,338.30
2023-02-06T20:41:33.164Z,362.84
2023-02-06T20:44:54.032Z,432.48
2023-02-06T20:48:17.726Z,486.99
2023-02-06T20:51:38.808Z,431.81
2023-02-06T20:55:02.360Z,385.00
2023-02-06T20:58:23.527Z,372.19
2023-02-06T21:01:45.451Z,392.26
2023-02-06T21:05:09.645Z,410.29
2023-02-06T21:08:33.560Z,384.10
2023-02-06T21:11:57.618Z,375.77
2023-02-06T21:15:21.417Z,360.76
2023-02-06T21:18:42.926Z,350.16
2023-02-06T21:22:07.108Z,354.38
2023-02-06T21:25:28.650Z,522.46
2023-02-06T21:28:50.248Z,413.48
2023-02-06T21:32:14.636Z,394.93
2023-02-06T21:35:37.112Z,488.82
2023-02-06T21:39:00.964Z,525.54
2023-02-06T21:42:26.433Z,472.19
2023-02-06T21:45:50.128Z,432.84
2023-02-06T21:49:11.871Z,405.71
2023-02-06T21:52:32.654Z,424.84
2023-02-06T21:55:55.943Z,420.57
2023-02-06T21:59:16.957Z,436.77
2023-02-06T22:02:37.607Z,400.65
2023-02-06T22:06:12.710Z,376.41
2023-02-06T22:09:33.662Z,353.27
2023-02-06T22:12:57.097Z,357.70
2023-02-06T22:16:21.804Z,388.99
2023-02-06T22:19:42.716Z,383.63
2023-02-06T22:23:06.664Z,343.11
2023-02-06T22:26:30.353Z,345.28
2023-02-06T22:29:53.618Z,355.79
2023-02-06T22:33:14.276Z,351.68
2023-02-06T22:36:38.034Z,345.76
2023-02-06T22:39:59.283Z,357.18
2023-02-06T22:43:19.975Z,351.50
2023-02-06T22:46:43.478Z,348.11
2023-02-06T22:50:04.108Z,346.45
2023-02-06T22:53:35.160Z,419.28
2023-02-06T22:56:55.857Z,401.99
2023-02-06T23:00:18.697Z,387.98
2023-02-06T23:03:41.997Z,391.10
2023-02-06T23:07:06.183Z,385.07
2023-02-06T23:10:33.014Z,379.34
2023-02-06T23:13:56.401Z,343.06
2023-02-06T23:17:17.085Z,355.18
2023-02-06T23:20:42.016Z,295.89
2023-02-06T23:24:03.232Z,303.42
2023-02-06T23:27:25.518Z,288.90
2023-02-06T23:30:46.324Z,291.95
2023-02-06T23:34:07.325Z,302.06
2023-02-06T23:37:30.622Z,337.55
2023-02-06T23:40:51.600Z,271.32
2023-02-06T23:44:18.358Z,251.25
2023-02-06T23:47:39.778Z,263.72
2023-02-06T23:51:00.781Z,302.10
2023-02-06T23:54:24.640Z,270.68
2023-02-06T23:57:45.387Z,258.36
